createdAt,value
2019-05-20T00:00:15.285Z,70.94
2019-05-20T00:04:19.561Z,71.02
2019-05-20T00:08:23.858Z,70.99
2019-05-20T00:12:28.040Z,70.99
2019-05-20T00:16:32.331Z,70.96
2019-05-20T00:20:36.597Z,71.01
2019-05-20T00:24:40.854Z,70.99
2019-05-20T00:28:45.103Z,71.00
2019-05-20T00:32:49.371Z,70.99
2019-05-20T00:36:53.927Z,70.87
2019-05-20T00:40:58.582Z,70.82
2019-05-20T00:45:02.923Z,70.84
2019-05-20T00:49:07.143Z,70.93
2019-05-20T00:53:11.604Z,70.94
2019-05-20T00:57:16.059Z,71.04
2019-05-20T01:01:20.327Z,71.16
2019-05-20T01:05:24.733Z,71.31
2019-05-20T01:09:29.010Z,71.46
2019-05-20T01:13:33.310Z,71.60
2019-05-20T01:17:37.510Z,71.61
2019-05-20T01:21:41.758Z,71.50
2019-05-20T01:25:46.004Z,71.62
2019-05-20T01:29:50.189Z,71.68
2019-05-20T01:33:54.430Z,71.78
2019-05-20T01:37:58.639Z,71.80
2019-05-20T01:42:02.897Z,71.80
2019-05-20T01:46:07.443Z,71.63
2019-05-20T01:50:11.650Z,71.67
2019-05-20T01:54:15.872Z,71.74
2019-05-20T01:58:20.105Z,71.81
2019-05-20T02:02:24.287Z,71.99
2019-05-20T02:06:28.861Z,72.08
2019-05-20T02:10:33.514Z,72.17
2019-05-20T02:14:43.847Z,72.23
2019-05-20T02:18:48.455Z,72.45
2019-05-20T02:22:54.929Z,72.62
2019-05-20T02:26:59.183Z,73.23
2019-05-20T02:31:03.433Z,73.25
2019-05-20T02:35:08.105Z,73.58
2019-05-20T02:39:12.502Z,73.58
2019-05-20T02:43:16.763Z,73.76
2019-05-20T02:47:21.054Z,73.87
2019-05-20T02:51:34.329Z,74.28
2019-05-20T02:55:38.551Z,74.92
2019-05-20T02:59:42.774Z,74.94
2019-05-20T03:03:47.020Z,75.34
2019-05-20T03:07:51.326Z,75.45
2019-05-20T03:11:55.532Z,75.82
2019-05-20T03:16:00.149Z,76.00
2019-05-20T03:20:04.723Z,76.04
2019-05-20T03:24:08.966Z,76.12
2019-05-20T03:28:13.687Z,76.27
2019-05-20T03:32:17.907Z,76.32
2019-05-20T03:36:22.158Z,76.43
2019-05-20T03:40:26.385Z,76.40
2019-05-20T03:44:31.022Z,76.87
2019-05-20T03:48:35.372Z,77.13
2019-05-20T03:52:39.704Z,77.52
2019-05-20T03:56:43.938Z,77.40
2019-05-20T04:00:48.951Z,77.88
2019-05-20T04:05:02.129Z,77.86
2019-05-20T04:08:59.192Z,77.92
2019-05-20T04:13:03.419Z,77.74
2019-05-20T04:17:07.644Z,78.30
2019-05-20T04:21:11.831Z,78.40
2019-05-20T04:25:16.256Z,78.39
2019-05-20T04:29:20.805Z,78.94
2019-05-20T04:33:25.064Z,79.00
2019-05-20T04:37:29.385Z,79.23
2019-05-20T04:41:35.792Z,78.99
2019-05-20T04:45:39.937Z,79.55
2019-05-20T04:49:44.159Z,79.42
2019-05-20T04:53:49.130Z,79.75
2019-05-20T04:57:53.331Z,79.79
2019-05-20T05:01:57.570Z,79.34
2019-05-20T05:06:01.846Z,79.54
2019-05-20T05:10:07.381Z,79.57
2019-05-20T05:14:11.602Z,79.53
2019-05-20T05:18:15.902Z,79.64
2019-05-20T05:22:20.417Z,79.48
2019-05-20T05:26:24.655Z,79.55
2019-05-20T05:30:29.041Z,79.38
2019-05-20T05:34:33.317Z,79.49
2019-05-20T05:38:37.545Z,79.26
2019-05-20T05:42:41.760Z,79.37
2019-05-20T05:46:46.005Z,79.27
2019-05-20T05:50:50.266Z,79.50
2019-05-20T05:54:54.514Z,79.15
2019-05-20T05:58:58.789Z,79.17
2019-05-20T06:03:03.104Z,79.18
2019-05-20T06:07:07.352Z,79.39
2019-05-20T06:11:11.628Z,79.14
2019-05-20T06:15:17.463Z,79.45
2019-05-20T06:19:21.719Z,79.43
2019-05-20T06:23:25.930Z,79.72
2019-05-20T06:27:30.521Z,79.67
2019-05-20T06:31:34.767Z,79.78
2019-05-20T06:35:39.013Z,79.89
2019-05-20T06:39:43.292Z,80.03
2019-05-20T06:43:47.531Z,79.89
2019-05-20T06:47:52.155Z,80.13
2019-05-20T06:51:56.343Z,80.25
2019-05-20T06:56:00.577Z,80.40
2019-05-20T07:00:06.286Z,80.25
2019-05-20T07:04:10.587Z,80.17
2019-05-20T07:08:14.861Z,80.31
2019-05-20T07:12:19.277Z,80.31
2019-05-20T07:16:23.484Z,80.34
2019-05-20T07:20:27.865Z,80.65
2019-05-20T07:24:32.123Z,80.84
2019-05-20T07:28:36.769Z,81.05
2019-05-20T07:32:41.252Z,80.58
2019-05-20T07:37:01.429Z,80.85
2019-05-20T07:40:51.711Z,80.97
2019-05-20T07:44:55.960Z,80.86
2019-05-20T07:49:03.260Z,80.86
2019-05-20T07:53:09.097Z,81.77
2019-05-20T07:57:16.680Z,81.12
2019-05-20T08:01:20.952Z,80.85
2019-05-20T08:05:25.205Z,81.57
2019-05-20T08:09:29.716Z,81.60
2019-05-20T08:13:33.951Z,81.36
2019-05-20T08:17:38.193Z,81.26
2019-05-20T08:21:42.385Z,81.24
2019-05-20T08:25:46.715Z,81.26
2019-05-20T08:29:50.942Z,80.96
2019-05-20T08:33:55.623Z,81.32
2019-05-20T08:38:00.117Z,80.70
2019-05-20T08:42:04.316Z,79.76
2019-05-20T08:46:08.657Z,79.57
2019-05-20T08:50:16.188Z,78.18
2019-05-20T08:54:19.039Z,77.10
2019-05-20T08:58:23.284Z,77.29
2019-05-20T09:02:27.565Z,77.56
2019-05-20T09:06:31.843Z,76.45
2019-05-20T09:10:39.421Z,77.04
2019-05-20T09:14:42.767Z,75.21
2019-05-20T09:18:46.990Z,75.55
2019-05-20T09:22:51.288Z,75.54
2019-05-20T09:26:55.680Z,75.21
2019-05-20T09:31:00.114Z,75.22
2019-05-20T09:35:05.762Z,73.44
2019-05-20T09:39:10.022Z,71.72
2019-05-20T09:43:14.217Z,72.20
2019-05-20T09:47:19.714Z,71.22
2019-05-20T09:51:24.002Z,70.15
2019-05-20T09:55:28.393Z,71.46
2019-05-20T09:59:42.790Z,70.99
2019-05-20T10:03:39.578Z,71.52
2019-05-20T10:07:43.883Z,70.89
2019-05-20T10:11:48.150Z,69.56
2019-05-20T10:15:52.684Z,68.71
2019-05-20T10:19:57.032Z,67.54
2019-05-20T10:24:01.503Z,67.31
2019-05-20T10:28:05.938Z,67.91
2019-05-20T10:32:10.145Z,67.80
2019-05-20T10:36:14.394Z,68.18
2019-05-20T10:40:19.271Z,65.82
2019-05-20T10:44:23.884Z,65.66
2019-05-20T10:48:28.189Z,65.48
2019-05-20T10:52:32.738Z,63.37
2019-05-20T10:56:37.009Z,62.94
2019-05-20T11:01:00.665Z,63.35
2019-05-20T11:04:47.746Z,62.43
2019-05-20T11:08:52.395Z,62.31
2019-05-20T11:12:56.672Z,60.85
2019-05-20T11:17:01.364Z,62.05
2019-05-20T11:21:05.652Z,63.76
2019-05-20T11:25:10.287Z,64.93
2019-05-20T11:29:15.009Z,65.50
2019-05-20T11:33:19.279Z,65.91
2019-05-20T11:37:23.587Z,65.49
2019-05-20T11:41:52.305Z,64.79
2019-05-20T11:45:34.389Z,65.41
2019-05-20T11:49:38.696Z,63.75
2019-05-20T11:53:43.029Z,62.54
2019-05-20T11:57:47.294Z,62.52
2019-05-20T12:01:51.511Z,61.52
2019-05-20T12:05:55.896Z,60.42
2019-05-20T12:10:00.283Z,58.88
2019-05-20T12:14:04.469Z,59.68
2019-05-20T12:18:08.722Z,59.30
2019-05-20T12:22:13.083Z,58.04
2019-05-20T12:26:17.346Z,58.43
2019-05-20T12:30:22.246Z,58.05
2019-05-20T12:34:26.565Z,57.90
2019-05-20T12:38:30.845Z,58.01
2019-05-20T12:42:35.076Z,58.32
2019-05-20T12:46:39.310Z,58.13
2019-05-20T12:50:43.545Z,57.81
2019-05-20T12:55:05.970Z,58.01
2019-05-20T12:58:54.974Z,57.51
2019-05-20T13:02:59.315Z,55.94
2019-05-20T13:07:03.844Z,56.26
2019-05-20T13:11:08.194Z,56.77
2019-05-20T13:15:12.965Z,57.34
2019-05-20T13:19:17.185Z,56.85
2019-05-20T13:23:21.727Z,54.60
2019-05-20T13:27:25.970Z,55.26
2019-05-20T13:31:30.443Z,55.38
2019-05-20T13:35:34.959Z,55.03
2019-05-20T13:39:41.101Z,55.42
2019-05-20T13:43:45.452Z,55.53
2019-05-20T13:47:49.995Z,55.75
2019-05-20T13:51:54.372Z,53.71
2019-05-20T13:55:59.047Z,54.15
2019-05-20T14:00:03.862Z,54.33
2019-05-20T14:04:08.104Z,54.04
2019-05-20T14:08:12.581Z,54.42
2019-05-20T14:12:17.048Z,54.35
2019-05-20T14:16:21.482Z,53.97
2019-05-20T14:20:25.870Z,54.60
2019-05-20T14:24:30.252Z,53.99
2019-05-20T14:28:34.627Z,54.06
2019-05-20T14:32:39.104Z,54.49
2019-05-20T14:36:43.490Z,54.58
2019-05-20T14:40:48.034Z,53.03
2019-05-20T14:44:52.475Z,49.05
2019-05-20T14:48:56.968Z,49.29
2019-05-20T14:53:01.191Z,49.20
2019-05-20T14:57:06.699Z,50.98
2019-05-20T15:01:11.022Z,52.14
2019-05-20T15:05:15.786Z,51.68
2019-05-20T15:09:20.100Z,51.38
2019-05-20T15:13:24.451Z,51.30
2019-05-20T15:17:28.746Z,51.30
2019-05-20T15:21:32.994Z,51.81
2019-05-20T15:25:37.369Z,52.42
2019-05-20T15:29:41.667Z,53.30
2019-05-20T15:33:46.080Z,53.57
2019-05-20T15:37:50.413Z,53.25
2019-05-20T15:41:54.762Z,53.40
2019-05-20T15:45:59.118Z,53.46
2019-05-20T15:50:24.986Z,53.80
2019-05-20T15:54:29.244Z,53.70
2019-05-20T15:58:33.763Z,53.62
2019-05-20T16:02:38.411Z,53.57
2019-05-20T16:06:42.732Z,53.12
2019-05-20T16:10:46.956Z,53.40
2019-05-20T16:14:51.746Z,53.66
2019-05-20T16:18:56.181Z,53.98
2019-05-20T16:23:00.477Z,54.15
2019-05-20T16:27:04.770Z,54.57
2019-05-20T16:31:09.118Z,54.98
2019-05-20T16:35:13.607Z,55.22
2019-05-20T16:39:17.845Z,55.41
2019-05-20T16:43:22.104Z,55.61
2019-05-20T16:47:26.402Z,55.79
2019-05-20T16:51:30.678Z,55.95
2019-05-20T16:55:34.949Z,56.15
2019-05-20T16:59:39.198Z,56.16
2019-05-20T17:03:43.486Z,56.30
2019-05-20T17:07:47.778Z,56.03
2019-05-20T17:11:52.084Z,56.18
2019-05-20T17:15:56.343Z,56.09
2019-05-20T17:20:00.636Z,56.15
2019-05-20T17:24:04.954Z,56.47
2019-05-20T17:28:09.233Z,56.75
2019-05-20T17:32:13.487Z,57.04
2019-05-20T17:36:17.896Z,57.64
2019-05-20T17:40:22.271Z,58.10
2019-05-20T17:44:26.515Z,58.36
2019-05-20T17:48:30.880Z,58.53
2019-05-20T17:52:35.094Z,58.54
2019-05-20T17:56:39.445Z,58.66
2019-05-20T18:00:43.800Z,58.78
2019-05-20T18:04:48.305Z,58.80
2019-05-20T18:08:54.630Z,58.91
2019-05-20T18:12:58.955Z,59.05
2019-05-20T18:17:03.317Z,59.22
2019-05-20T18:21:07.860Z,59.59
2019-05-20T18:25:12.287Z,59.81
2019-05-20T18:29:17.017Z,60.00
2019-05-20T18:33:21.605Z,60.26
2019-05-20T18:37:26.909Z,60.33
2019-05-20T18:41:31.370Z,60.32
2019-05-20T18:45:35.587Z,60.55
2019-05-20T18:49:41.317Z,60.62
2019-05-20T18:53:46.008Z,60.68
2019-05-20T18:57:50.385Z,60.91
2019-05-20T19:02:04.670Z,60.99
2019-05-20T19:06:01.000Z,61.19
2019-05-20T19:10:06.382Z,61.39
2019-05-20T19:14:10.675Z,61.55
2019-05-20T19:18:14.941Z,61.61
2019-05-20T19:22:19.278Z,61.79
2019-05-20T19:26:25.491Z,61.92
2019-05-20T19:30:30.005Z,62.13
2019-05-20T19:34:34.333Z,62.31
2019-05-20T19:38:38.599Z,62.41
2019-05-20T19:42:43.367Z,62.50
2019-05-20T19:46:47.724Z,62.68
2019-05-20T19:50:51.943Z,62.73
2019-05-20T19:54:56.405Z,62.85
2019-05-20T19:59:00.670Z,62.97
2019-05-20T20:03:04.926Z,63.20
2019-05-20T20:07:09.541Z,63.31
2019-05-20T20:11:13.821Z,63.39
2019-05-20T20:15:19.305Z,63.52
2019-05-20T20:19:23.562Z,63.65
2019-05-20T20:23:27.832Z,63.81
2019-05-20T20:27:32.126Z,64.09
2019-05-20T20:31:36.360Z,64.25
2019-05-20T20:35:40.619Z,64.29
2019-05-20T20:39:45.277Z,64.46
2019-05-20T20:43:49.557Z,64.65
2019-05-20T20:47:53.783Z,64.84
2019-05-20T20:51:58.032Z,64.92
2019-05-20T20:56:02.666Z,65.04
2019-05-20T21:00:08.182Z,65.14
2019-05-20T21:04:12.512Z,65.15
2019-05-20T21:08:17.236Z,65.11
2019-05-20T21:12:21.509Z,65.20
2019-05-20T21:16:25.738Z,65.38
2019-05-20T21:20:30.389Z,65.55
2019-05-20T21:24:34.701Z,65.70
2019-05-20T21:28:39.693Z,65.74
2019-05-20T21:32:43.973Z,65.91
2019-05-20T21:36:48.477Z,65.96
2019-05-20T21:40:52.803Z,66.16
2019-05-20T21:44:57.614Z,66.23
2019-05-20T21:49:01.921Z,66.17
2019-05-20T21:53:06.386Z,66.35
2019-05-20T21:57:10.879Z,66.61
2019-05-20T22:01:15.141Z,66.71
2019-05-20T22:05:19.664Z,66.83
2019-05-20T22:09:24.023Z,67.00
2019-05-20T22:13:28.314Z,67.09
2019-05-20T22:17:32.545Z,67.28
2019-05-20T22:21:43.125Z,67.46
2019-05-20T22:25:48.272Z,67.74
2019-05-20T22:29:52.508Z,67.84
2019-05-20T22:33:56.761Z,67.89
2019-05-20T22:38:00.987Z,67.86
2019-05-20T22:42:05.266Z,67.98
2019-05-20T22:46:09.528Z,68.06
2019-05-20T22:50:14.135Z,68.07
2019-05-20T22:54:18.380Z,68.44
2019-05-20T22:58:22.793Z,68.57
2019-05-20T23:02:27.040Z,68.69
2019-05-20T23:06:31.560Z,68.78
2019-05-20T23:10:36.536Z,68.72
2019-05-20T23:14:40.873Z,68.62
2019-05-20T23:18:45.128Z,68.49
2019-05-20T23:22:49.502Z,68.61
2019-05-20T23:26:53.708Z,68.73
2019-05-20T23:30:57.938Z,68.96
2019-05-20T23:35:02.666Z,69.14
2019-05-20T23:39:07.896Z,69.23
2019-05-20T23:43:12.200Z,69.55
2019-05-20T23:47:16.486Z,69.71
2019-05-20T23:51:21.163Z,69.71
2019-05-20T23:55:25.421Z,69.96
2019-05-20T23:59:30.063Z,70.01
